createdAt,value
2023-10-29T00:00:57.728Z,94477.72
2023-10-29T00:03:25.164Z,94476.81
2023-10-29T00:05:52.643Z,94476.81
2023-10-29T00:08:20.062Z,94484.22
2023-10-29T00:10:47.837Z,94479.81
2023-10-29T00:13:15.240Z,94468.34
2023-10-29T00:15:42.853Z,94475.44
2023-10-29T00:18:13.783Z,94465.69
2023-10-29T00:20:41.295Z,94456.53
2023-10-29T00:23:08.939Z,94467.19
2023-10-29T00:25:36.265Z,94478.66
2023-10-29T00:28:03.646Z,94478.16
2023-10-29T00:30:31.159Z,94482.50
2023-10-29T00:32:58.566Z,94482.81
2023-10-29T00:35:25.926Z,94480.50
2023-10-29T00:37:53.360Z,94480.81
2023-10-29T00:40:21.456Z,94470.16
2023-10-29T00:42:48.737Z,94486.50
2023-10-29T00:45:16.085Z,94484.56
2023-10-29T00:47:43.624Z,94488.31
2023-10-29T00:50:12.724Z,94480.31
2023-10-29T00:52:40.073Z,94482.06
2023-10-29T00:55:10.082Z,94493.78
2023-10-29T00:57:38.231Z,94485.81
2023-10-29T01:00:07.592Z,94488.06
2023-10-29T01:02:35.472Z,94492.31
2023-10-29T01:05:06.328Z,94486.91
2023-10-29T01:07:34.002Z,94486.34
2023-10-29T01:10:01.509Z,94487.00
2023-10-29T01:12:29.138Z,94474.47
2023-10-29T01:14:56.574Z,94478.44
2023-10-29T01:17:24.925Z,94472.91
2023-10-29T01:19:52.750Z,94486.25
2023-10-29T01:22:20.124Z,94470.66
2023-10-29T01:24:47.579Z,94464.44
2023-10-29T01:27:14.996Z,94470.38
2023-10-29T01:29:42.491Z,94465.94
2023-10-29T01:32:10.070Z,94461.16
2023-10-29T01:34:37.466Z,94457.97
2023-10-29T01:37:04.740Z,94461.19
2023-10-29T01:39:31.985Z,94448.56
2023-10-29T01:41:59.382Z,94454.03
2023-10-29T01:44:26.942Z,94447.81
2023-10-29T01:46:54.865Z,94438.94
2023-10-29T01:49:22.116Z,94443.66
2023-10-29T01:51:50.950Z,94447.06
2023-10-29T01:54:18.184Z,94446.34
2023-10-29T01:56:45.856Z,94447.56
2023-10-29T01:59:15.190Z,94441.56
2023-10-29T02:01:44.026Z,94449.41
2023-10-29T02:04:12.349Z,94446.28
2023-10-29T02:06:42.571Z,94454.47
2023-10-29T02:09:10.656Z,94456.47
2023-10-29T02:11:39.124Z,94445.00
2023-10-29T02:14:07.104Z,94440.09
2023-10-29T02:16:34.913Z,94439.94
2023-10-29T02:19:02.256Z,94442.25
2023-10-29T02:21:29.578Z,94437.97
2023-10-29T02:23:56.918Z,94437.03
2023-10-29T02:26:24.870Z,94443.00
2023-10-29T02:28:52.270Z,94445.41
2023-10-29T02:31:20.879Z,94442.28
2023-10-29T02:33:49.237Z,94442.38
2023-10-29T02:36:16.679Z,94442.31
2023-10-29T02:38:44.401Z,94420.41
2023-10-29T02:41:14.143Z,94425.13
2023-10-29T02:43:41.719Z,94431.38
2023-10-29T02:46:09.216Z,94442.28
2023-10-29T02:48:36.508Z,94436.59
2023-10-29T02:51:04.077Z,94428.88
2023-10-29T02:53:32.425Z,94430.06
2023-10-29T02:56:03.552Z,94423.75
2023-10-29T02:58:30.902Z,94421.75
2023-10-29T03:01:09.085Z,94424.09
2023-10-29T03:03:38.377Z,94427.28
2023-10-29T03:06:09.846Z,94413.38
2023-10-29T03:08:37.845Z,94414.53
2023-10-29T03:11:05.122Z,94424.34
2023-10-29T03:13:32.641Z,94415.94
2023-10-29T03:16:02.165Z,94414.03
2023-10-29T03:18:33.411Z,94419.84
2023-10-29T03:21:00.800Z,94412.28
2023-10-29T03:23:28.197Z,94414.13
2023-10-29T03:26:03.453Z,94417.09
2023-10-29T03:28:30.965Z,94407.56
2023-10-29T03:30:58.283Z,94407.72
2023-10-29T03:33:25.613Z,94410.44
2023-10-29T03:35:52.918Z,94413.06
2023-10-29T03:38:20.151Z,94404.75
2023-10-29T03:40:47.394Z,94404.31
2023-10-29T03:43:14.831Z,94409.38
2023-10-29T03:45:42.153Z,94417.72
2023-10-29T03:48:09.507Z,94421.59
2023-10-29T03:50:36.871Z,94422.44
2023-10-29T03:53:04.225Z,94410.63
2023-10-29T03:55:33.450Z,94410.13
2023-10-29T03:58:01.336Z,94408.03
2023-10-29T04:00:28.609Z,94392.16
2023-10-29T04:02:57.063Z,94385.44
2023-10-29T04:05:24.591Z,94379.91
2023-10-29T04:07:53.853Z,94385.47
2023-10-29T04:10:21.095Z,94382.84
2023-10-29T04:12:48.308Z,94382.16
2023-10-29T04:15:15.624Z,94382.66
2023-10-29T04:17:42.950Z,94383.78
2023-10-29T04:20:10.646Z,94369.69
2023-10-29T04:22:40.819Z,94368.13
2023-10-29T04:25:08.382Z,94360.56
2023-10-29T04:27:35.736Z,94366.56
2023-10-29T04:30:03.618Z,94361.88
2023-10-29T04:32:30.964Z,94367.34
2023-10-29T04:34:58.440Z,94364.91
2023-10-29T04:37:25.691Z,94379.31
2023-10-29T04:39:53.041Z,94364.50
2023-10-29T04:42:20.245Z,94364.91
2023-10-29T04:44:47.813Z,94372.84
2023-10-29T04:47:15.215Z,94355.94
2023-10-29T04:49:44.542Z,94360.97
2023-10-29T04:52:12.075Z,94369.19
2023-10-29T04:54:39.307Z,94356.25
2023-10-29T04:57:06.586Z,94348.31
2023-10-29T04:59:34.399Z,94366.50
2023-10-29T05:02:02.224Z,94356.50
2023-10-29T05:04:29.609Z,94354.41
2023-10-29T05:06:56.946Z,94347.63
2023-10-29T05:09:24.378Z,94350.88
2023-10-29T05:11:52.739Z,94345.50
2023-10-29T05:14:20.017Z,94334.59
2023-10-29T05:16:47.389Z,94333.75
2023-10-29T05:19:14.624Z,94338.00
2023-10-29T05:21:42.525Z,94336.16
2023-10-29T05:24:10.132Z,94328.28
2023-10-29T05:26:40.313Z,94336.19
2023-10-29T05:29:07.858Z,94335.44
2023-10-29T05:31:35.066Z,94331.81
2023-10-29T05:34:02.621Z,94320.91
2023-10-29T05:36:29.816Z,94307.97
2023-10-29T05:38:57.162Z,94328.38
2023-10-29T05:41:24.672Z,94327.69
2023-10-29T05:43:52.308Z,94342.97
2023-10-29T05:46:23.434Z,94346.56
2023-10-29T05:48:51.942Z,94346.06
2023-10-29T05:51:20.515Z,94340.56
2023-10-29T05:53:50.525Z,94351.13
2023-10-29T05:56:19.319Z,94354.03
2023-10-29T05:58:46.497Z,94357.50
2023-10-29T06:01:13.689Z,94347.94
2023-10-29T06:03:40.993Z,94358.34
2023-10-29T06:06:08.367Z,94351.81
2023-10-29T06:08:35.581Z,94356.59
2023-10-29T06:11:04.908Z,94369.28
2023-10-29T06:13:32.116Z,94357.41
2023-10-29T06:16:00.988Z,94366.72
2023-10-29T06:18:28.561Z,94363.88
2023-10-29T06:21:02.973Z,94351.38
2023-10-29T06:23:30.377Z,94340.28
2023-10-29T06:26:00.321Z,94342.72
2023-10-29T06:28:27.733Z,94345.44
2023-10-29T06:30:55.246Z,94351.78
2023-10-29T06:33:22.488Z,94354.66
2023-10-29T06:35:50.010Z,94346.91
2023-10-29T06:38:17.304Z,94341.44
2023-10-29T06:40:44.505Z,94350.09
2023-10-29T06:43:14.544Z,94354.09
2023-10-29T06:45:42.551Z,94351.75
2023-10-29T06:48:09.905Z,94364.19
2023-10-29T06:50:37.745Z,94374.41
2023-10-29T06:53:07.002Z,94368.91
2023-10-29T06:55:36.874Z,94358.16
2023-10-29T06:58:05.344Z,94356.50
2023-10-29T07:00:32.950Z,94361.22
2023-10-29T07:03:03.944Z,94368.34
2023-10-29T07:05:31.643Z,94360.44
2023-10-29T07:08:00.134Z,94357.72
2023-10-29T07:10:28.193Z,94360.63
2023-10-29T07:12:55.721Z,94359.16
2023-10-29T07:15:23.198Z,94354.56
2023-10-29T07:17:50.443Z,94343.69
2023-10-29T07:20:19.792Z,94349.66
2023-10-29T07:22:47.126Z,94358.78
2023-10-29T07:25:14.935Z,94367.94
2023-10-29T07:27:42.589Z,94362.16
2023-10-29T07:30:10.820Z,94362.63
2023-10-29T07:32:38.179Z,94372.56
2023-10-29T07:35:05.628Z,94358.38
2023-10-29T07:37:33.088Z,94364.34
2023-10-29T07:40:00.320Z,94366.75
2023-10-29T07:42:27.883Z,94370.78
2023-10-29T07:44:55.088Z,94379.94
2023-10-29T07:47:22.530Z,94384.75
2023-10-29T07:49:49.913Z,94391.84
2023-10-29T07:52:17.236Z,94390.50
2023-10-29T07:54:44.613Z,94393.13
2023-10-29T07:57:12.136Z,94394.56
2023-10-29T07:59:39.693Z,94391.88
2023-10-29T08:02:07.045Z,94396.88
2023-10-29T08:04:34.255Z,94399.34
2023-10-29T08:07:02.932Z,94393.84
2023-10-29T08:09:30.259Z,94404.06
2023-10-29T08:11:57.629Z,94397.38
2023-10-29T08:14:25.012Z,94392.25
2023-10-29T08:16:52.402Z,94393.28
2023-10-29T08:19:19.691Z,94395.47
2023-10-29T08:21:47.585Z,94394.53
2023-10-29T08:24:14.872Z,94389.66
2023-10-29T08:26:42.065Z,94395.84
2023-10-29T08:29:10.817Z,94388.47
2023-10-29T08:31:38.212Z,94382.44
2023-10-29T08:34:11.742Z,94385.09
2023-10-29T08:36:40.239Z,94386.34
2023-10-29T08:39:08.432Z,94399.53
2023-10-29T08:41:39.504Z,94403.78
2023-10-29T08:44:19.068Z,94407.53
2023-10-29T08:46:47.999Z,94419.66
2023-10-29T08:49:15.418Z,94421.97
2023-10-29T08:51:42.726Z,94423.72
2023-10-29T08:54:10.066Z,94428.69
2023-10-29T08:56:37.569Z,94421.16
2023-10-29T08:59:06.558Z,94420.41
2023-10-29T09:01:34.275Z,94406.31
2023-10-29T09:04:05.344Z,94417.25
2023-10-29T09:06:34.016Z,94417.91
2023-10-29T09:09:01.984Z,94411.69
2023-10-29T09:11:29.425Z,94422.16
2023-10-29T09:13:56.728Z,94417.66
2023-10-29T09:16:24.320Z,94420.44
2023-10-29T09:18:51.609Z,94428.81
2023-10-29T09:21:19.430Z,94424.34
2023-10-29T09:23:46.996Z,94424.13
2023-10-29T09:26:16.658Z,94421.00
2023-10-29T09:28:45.320Z,94427.50
2023-10-29T09:31:20.019Z,94437.78
2023-10-29T09:33:48.652Z,94437.22
2023-10-29T09:36:22.492Z,94425.69
2023-10-29T09:38:50.653Z,94421.41
2023-10-29T09:41:21.416Z,94416.22
2023-10-29T09:43:52.242Z,94413.53
2023-10-29T09:46:21.175Z,94403.34
2023-10-29T09:48:51.496Z,94389.00
2023-10-29T09:51:20.578Z,94394.84
2023-10-29T09:53:50.311Z,94400.03
2023-10-29T09:56:19.536Z,94401.63
2023-10-29T09:58:46.817Z,94407.66
2023-10-29T10:01:16.802Z,94403.41
2023-10-29T10:03:47.305Z,94413.03
2023-10-29T10:06:18.591Z,94406.78
2023-10-29T10:08:57.891Z,94414.06
2023-10-29T10:11:25.864Z,94416.25
2023-10-29T10:13:56.332Z,94411.47
2023-10-29T10:16:24.147Z,94403.94
2023-10-29T10:18:59.258Z,94399.72
2023-10-29T10:21:28.372Z,94403.69
2023-10-29T10:23:57.375Z,94402.78
2023-10-29T10:26:31.276Z,94406.19
2023-10-29T10:29:00.370Z,94404.28
2023-10-29T10:31:28.951Z,94403.94
2023-10-29T10:34:15.392Z,94401.84
2023-10-29T10:36:44.489Z,94400.38
2023-10-29T10:39:12.830Z,94399.38
2023-10-29T10:41:45.486Z,94398.84
2023-10-29T10:44:15.122Z,94390.53
2023-10-29T10:46:50.558Z,94389.19
2023-10-29T10:49:22.407Z,94380.47
2023-10-29T10:51:59.868Z,94385.72
2023-10-29T10:54:27.540Z,94381.53
2023-10-29T10:56:57.074Z,94382.72
2023-10-29T10:59:24.417Z,94377.63
2023-10-29T11:01:52.165Z,94370.06
2023-10-29T11:04:21.959Z,94379.41
2023-10-29T11:06:50.909Z,94363.97
2023-10-29T11:09:20.943Z,94357.03
2023-10-29T11:11:57.206Z,94354.03
2023-10-29T11:14:25.915Z,94357.69
2023-10-29T11:17:01.890Z,94363.09
2023-10-29T11:19:45.970Z,94364.13
2023-10-29T11:22:17.511Z,94364.13
2023-10-29T11:25:05.905Z,94373.00
2023-10-29T11:27:56.451Z,94366.56
2023-10-29T11:30:31.351Z,94375.16
2023-10-29T11:33:14.032Z,94368.41
2023-10-29T11:35:48.109Z,94360.84
2023-10-29T11:38:31.053Z,94358.56
2023-10-29T11:40:59.686Z,94353.69
2023-10-29T11:43:28.316Z,94357.69
2023-10-29T11:46:02.627Z,94356.22
2023-10-29T11:48:30.776Z,94338.66
2023-10-29T11:51:09.709Z,94338.16
2023-10-29T11:53:38.190Z,94337.00
2023-10-29T11:56:07.431Z,94332.84
2023-10-29T11:58:34.690Z,94332.84
2023-10-29T12:01:02.026Z,94337.00
2023-10-29T12:03:56.743Z,94344.22
2023-10-29T12:06:40.980Z,94337.00
2023-10-29T12:09:25.809Z,94341.16
2023-10-29T12:11:54.258Z,94337.66
2023-10-29T12:14:42.209Z,94324.91
2023-10-29T12:17:12.529Z,94331.66
2023-10-29T12:19:43.282Z,94337.47
2023-10-29T12:22:24.606Z,94342.41
2023-10-29T12:25:18.319Z,94333.50
2023-10-29T12:27:45.852Z,94330.59
2023-10-29T12:30:36.555Z,94330.94
2023-10-29T12:33:23.713Z,94327.34
2023-10-29T12:35:52.353Z,94318.41
2023-10-29T12:38:21.247Z,94316.06
2023-10-29T12:41:09.448Z,94309.28
2023-10-29T12:43:39.850Z,94316.88
2023-10-29T12:46:12.044Z,94326.44
2023-10-29T12:48:59.587Z,94326.88
2023-10-29T12:51:36.196Z,94321.97
2023-10-29T12:54:17.514Z,94317.53
2023-10-29T12:56:54.168Z,94324.22
2023-10-29T12:59:34.071Z,94320.91
2023-10-29T13:02:06.820Z,94314.88
2023-10-29T13:04:35.710Z,94316.69
2023-10-29T13:07:09.308Z,94315.06
2023-10-29T13:09:37.683Z,94312.09
2023-10-29T13:12:10.538Z,94309.09
2023-10-29T13:14:39.129Z,94315.34
2023-10-29T13:17:08.238Z,94309.28
2023-10-29T13:19:36.515Z,94312.69
2023-10-29T13:22:06.244Z,94319.34
2023-10-29T13:24:33.837Z,94314.59
2023-10-29T13:27:03.150Z,94313.13
2023-10-29T13:29:30.507Z,94320.00
2023-10-29T13:31:58.002Z,94326.09
2023-10-29T13:34:25.763Z,94337.63
2023-10-29T13:36:52.962Z,94337.78
2023-10-29T13:39:26.442Z,94338.47
2023-10-29T13:41:56.997Z,94335.72
2023-10-29T13:44:24.574Z,94328.75
2023-10-29T13:46:52.036Z,94324.91
2023-10-29T13:49:19.645Z,94325.38
2023-10-29T13:51:48.114Z,94322.66
2023-10-29T13:54:15.617Z,94326.78
2023-10-29T13:56:43.614Z,94315.09
2023-10-29T13:59:12.828Z,94330.88
2023-10-29T14:01:41.108Z,94316.53
2023-10-29T14:04:08.536Z,94312.19
2023-10-29T14:06:35.964Z,94303.66
2023-10-29T14:09:03.454Z,94297.03
2023-10-29T14:11:31.212Z,94306.00
2023-10-29T14:13:59.325Z,94310.94
2023-10-29T14:16:41.081Z,94319.44
2023-10-29T14:19:09.124Z,94307.28
2023-10-29T14:21:37.110Z,94304.94
2023-10-29T14:24:07.878Z,94306.22
2023-10-29T14:26:35.884Z,94297.88
2023-10-29T14:29:03.411Z,94295.50
2023-10-29T14:31:30.837Z,94290.69
2023-10-29T14:33:58.392Z,94286.66
2023-10-29T14:36:25.759Z,94281.81
2023-10-29T14:38:53.038Z,94288.22
2023-10-29T14:41:20.585Z,94281.25
2023-10-29T14:43:47.965Z,94292.91
2023-10-29T14:46:17.879Z,94283.59
2023-10-29T14:48:45.370Z,94297.47
2023-10-29T14:51:12.762Z,94290.78
2023-10-29T14:53:40.232Z,94286.09
2023-10-29T14:56:08.601Z,94282.72
2023-10-29T14:58:36.161Z,94276.25
2023-10-29T15:01:09.232Z,94287.19
2023-10-29T15:03:42.079Z,94285.31
2023-10-29T15:06:10.961Z,94258.16
2023-10-29T15:08:39.793Z,94267.00
2023-10-29T15:11:07.513Z,94252.28
2023-10-29T15:13:45.932Z,94243.84
2023-10-29T15:16:14.702Z,94246.16
2023-10-29T15:18:45.383Z,94240.47
2023-10-29T15:21:18.974Z,94251.69
2023-10-29T15:23:46.581Z,94246.44
2023-10-29T15:26:15.880Z,94251.75
2023-10-29T15:28:46.970Z,94244.25
2023-10-29T15:31:14.481Z,94266.47
2023-10-29T15:33:42.086Z,94255.59
2023-10-29T15:36:11.392Z,94255.59
2023-10-29T15:38:40.325Z,94249.72
2023-10-29T15:41:08.022Z,94256.09
2023-10-29T15:43:35.374Z,94255.09
2023-10-29T15:46:07.964Z,94261.47
2023-10-29T15:48:35.433Z,94256.84
2023-10-29T15:51:09.395Z,94250.56
2023-10-29T15:53:37.949Z,94258.41
2023-10-29T15:56:09.730Z,94255.44
2023-10-29T15:58:37.152Z,94249.84
2023-10-29T16:01:04.661Z,94260.16
2023-10-29T16:03:32.601Z,94252.38
2023-10-29T16:06:08.142Z,94250.72
2023-10-29T16:08:39.547Z,94251.50
2023-10-29T16:11:20.550Z,94250.81
2023-10-29T16:13:47.784Z,94248.19
2023-10-29T16:16:15.036Z,94242.66
2023-10-29T16:18:42.415Z,94246.97
2023-10-29T16:21:12.052Z,94246.81
2023-10-29T16:23:39.388Z,94234.81
2023-10-29T16:26:06.609Z,94235.22
2023-10-29T16:28:33.865Z,94244.50
2023-10-29T16:31:01.097Z,94244.56
2023-10-29T16:33:28.463Z,94240.50
2023-10-29T16:35:56.578Z,94243.66
2023-10-29T16:38:24.075Z,94240.50
2023-10-29T16:40:53.141Z,94241.28
2023-10-29T16:43:20.486Z,94245.59
2023-10-29T16:45:47.736Z,94241.91
2023-10-29T16:48:15.883Z,94244.94
2023-10-29T16:50:56.137Z,94251.66
2023-10-29T16:53:29.807Z,94251.88
2023-10-29T16:56:05.475Z,94260.63
2023-10-29T16:58:33.180Z,94258.22
2023-10-29T17:01:00.682Z,94262.19
2023-10-29T17:03:28.637Z,94269.94
2023-10-29T17:05:56.270Z,94262.88
2023-10-29T17:08:23.830Z,94269.19
2023-10-29T17:10:51.131Z,94275.75
2023-10-29T17:13:19.023Z,94282.66
2023-10-29T17:15:46.701Z,94275.03
2023-10-29T17:18:13.988Z,94287.59
2023-10-29T17:20:41.402Z,94282.88
2023-10-29T17:23:08.623Z,94286.09
2023-10-29T17:25:38.250Z,94286.84
2023-10-29T17:28:05.361Z,94293.22
2023-10-29T17:30:34.157Z,94294.16
2023-10-29T17:33:01.476Z,94296.50
2023-10-29T17:35:32.040Z,94300.41
2023-10-29T17:37:59.360Z,94306.84
2023-10-29T17:40:26.961Z,94322.72
2023-10-29T17:42:54.201Z,94322.81
2023-10-29T17:45:21.798Z,94333.81
2023-10-29T17:47:50.252Z,94344.16
2023-10-29T17:50:17.582Z,94352.78
2023-10-29T17:52:47.407Z,94351.63
2023-10-29T17:55:14.944Z,94352.06
2023-10-29T17:57:45.202Z,94353.72
2023-10-29T18:00:15.336Z,94352.22
2023-10-29T18:02:43.198Z,94349.91
2023-10-29T18:05:12.149Z,94353.06
2023-10-29T18:07:39.598Z,94359.41
2023-10-29T18:10:07.452Z,94357.09
2023-10-29T18:12:34.909Z,94362.63
2023-10-29T18:15:02.315Z,94355.34
2023-10-29T18:17:29.864Z,94360.22
2023-10-29T18:19:57.301Z,94361.31
2023-10-29T18:22:24.553Z,94373.97
2023-10-29T18:24:51.831Z,94372.09
2023-10-29T18:27:19.222Z,94378.28
2023-10-29T18:29:47.484Z,94379.91
2023-10-29T18:32:14.815Z,94381.28
2023-10-29T18:34:43.519Z,94387.59
2023-10-29T18:37:10.795Z,94387.50
2023-10-29T18:39:39.763Z,94370.81
2023-10-29T18:42:07.428Z,94377.63
2023-10-29T18:44:34.917Z,94387.09
2023-10-29T18:47:02.575Z,94380.03
2023-10-29T18:49:30.199Z,94392.53
2023-10-29T18:51:57.629Z,94389.50
2023-10-29T18:54:25.840Z,94402.69
2023-10-29T18:56:53.910Z,94429.44
2023-10-29T18:59:24.776Z,94426.81
2023-10-29T19:01:51.982Z,94435.84
2023-10-29T19:04:19.396Z,94439.00
2023-10-29T19:06:46.610Z,94446.00
2023-10-29T19:09:14.385Z,94456.19
2023-10-29T19:11:41.647Z,94465.75
2023-10-29T19:14:08.910Z,94467.31
2023-10-29T19:16:36.247Z,94467.28
2023-10-29T19:19:04.127Z,94474.75
2023-10-29T19:21:31.809Z,94474.38
2023-10-29T19:23:59.524Z,94468.47
2023-10-29T19:26:28.268Z,94472.00
2023-10-29T19:28:55.428Z,94480.53
2023-10-29T19:31:27.527Z,94483.81
2023-10-29T19:33:55.572Z,94485.06
2023-10-29T19:36:23.003Z,94487.84
2023-10-29T19:38:50.219Z,94485.47
2023-10-29T19:41:17.405Z,94491.00
2023-10-29T19:43:44.853Z,94497.41
2023-10-29T19:46:12.277Z,94504.44
2023-10-29T19:48:39.600Z,94517.44
2023-10-29T19:51:07.997Z,94516.28
2023-10-29T19:53:36.720Z,94515.19
2023-10-29T19:56:08.095Z,94520.25
2023-10-29T19:58:36.235Z,94506.94
2023-10-29T20:01:05.602Z,94534.91
2023-10-29T20:03:34.655Z,94523.50
2023-10-29T20:06:12.704Z,94531.38
2023-10-29T20:08:42.154Z,94531.41
2023-10-29T20:11:13.801Z,94538.47
2023-10-29T20:13:44.454Z,94544.41
2023-10-29T20:16:12.281Z,94542.44
2023-10-29T20:19:10.616Z,94529.88
2023-10-29T20:21:38.134Z,94532.25
2023-10-29T20:24:09.166Z,94536.22
2023-10-29T20:26:41.217Z,94524.41
2023-10-29T20:29:08.781Z,94548.44
2023-10-29T20:31:36.770Z,94549.97
2023-10-29T20:34:07.289Z,94543.28
2023-10-29T20:36:34.782Z,94552.78
2023-10-29T20:39:04.909Z,94553.94
2023-10-29T20:56:10.210Z,94563.81
2023-10-29T20:59:02.849Z,94565.00
2023-10-29T21:06:43.986Z,94579.59
2023-10-29T21:26:30.481Z,94587.44
2023-10-29T21:38:03.622Z,94601.56
2023-10-29T21:40:37.617Z,94600.41
2023-10-29T21:43:05.087Z,94602.34
2023-10-29T21:45:32.376Z,94605.50
2023-10-29T21:48:09.204Z,94610.22
2023-10-29T21:50:41.538Z,94608.63
2023-10-29T21:53:10.394Z,94599.88
2023-10-29T21:55:38.243Z,94594.28
2023-10-29T21:58:09.684Z,94612.22
2023-10-29T22:00:37.301Z,94612.66
2023-10-29T22:03:05.645Z,94613.50
2023-10-29T22:05:33.408Z,94610.00
2023-10-29T22:08:00.941Z,94619.81
2023-10-29T22:10:28.238Z,94616.28
2023-10-29T22:12:56.817Z,94617.06
2023-10-29T22:15:28.608Z,94622.66
2023-10-29T22:17:56.129Z,94632.09
2023-10-29T22:20:23.647Z,94626.97
2023-10-29T22:22:51.334Z,94630.50
2023-10-29T22:25:19.555Z,94643.81
2023-10-29T22:27:46.741Z,94642.28
2023-10-29T22:30:14.098Z,94641.38
2023-10-29T22:32:41.302Z,94639.84
2023-10-29T22:35:08.619Z,94645.81
2023-10-29T22:37:35.951Z,94644.53
2023-10-29T22:40:03.209Z,94650.03
2023-10-29T22:42:30.458Z,94643.28
2023-10-29T22:44:57.766Z,94650.78
2023-10-29T22:47:25.219Z,94646.19
2023-10-29T22:49:52.564Z,94650.88
2023-10-29T22:52:19.732Z,94645.41
2023-10-29T22:54:50.564Z,94646.88
2023-10-29T22:57:17.927Z,94653.13
2023-10-29T22:59:45.247Z,94646.06
2023-10-29T23:02:13.590Z,94642.06
2023-10-29T23:04:41.593Z,94642.00
2023-10-29T23:07:08.868Z,94640.75
2023-10-29T23:09:36.330Z,94639.94
2023-10-29T23:12:04.802Z,94638.72
2023-10-29T23:14:32.346Z,94637.06
2023-10-29T23:16:59.926Z,94641.63
2023-10-29T23:19:30.252Z,94631.69
2023-10-29T23:21:57.626Z,94634.72
2023-10-29T23:24:39.848Z,94634.63
2023-10-29T23:27:10.741Z,94651.78
2023-10-29T23:29:38.526Z,94647.84
2023-10-29T23:32:06.761Z,94650.84
2023-10-29T23:34:34.292Z,94639.22
2023-10-29T23:37:01.664Z,94640.06
2023-10-29T23:39:29.711Z,94646.00
2023-10-29T23:41:57.065Z,94640.88
2023-10-29T23:44:24.439Z,94642.50
2023-10-29T23:47:07.461Z,94641.59
2023-10-29T23:49:44.546Z,94634.06
2023-10-29T23:52:12.767Z,94633.78
2023-10-29T23:54:43.819Z,94632.41
2023-10-29T23:57:16.204Z,94641.53
2023-10-29T23:59:44.441Z,94640.72
